createdAt,value
2016-02-17T00:00:33.264Z,1025.88
2016-02-17T00:01:33.297Z,1025.85
2016-02-17T00:02:33.363Z,1025.8
2016-02-17T00:03:33.412Z,1025.83
2016-02-17T00:04:33.463Z,1025.8
2016-02-17T00:05:33.513Z,1025.81
2016-02-17T00:06:33.546Z,1025.8
2016-02-17T00:07:33.611Z,1025.77
2016-02-17T00:08:33.660Z,1025.78
2016-02-17T00:09:33.710Z,1025.78
2016-02-17T00:10:33.759Z,1025.72
2016-02-17T00:11:33.810Z,1025.75
2016-02-17T00:12:33.859Z,1025.72
2016-02-17T00:13:33.909Z,1025.74
2016-02-17T00:14:33.958Z,1025.73
2016-02-17T00:15:34.007Z,1025.71
2016-02-17T00:16:34.057Z,1025.7
2016-02-17T00:17:34.122Z,1025.67
2016-02-17T00:18:34.172Z,1025.66
2016-02-17T00:19:34.206Z,1025.65
2016-02-17T00:20:34.270Z,1025.67
2016-02-17T00:21:34.320Z,1025.64
2016-02-17T00:22:34.370Z,1025.67
2016-02-17T00:23:34.419Z,1025.62
2016-02-17T00:24:34.484Z,1025.62
2016-02-17T00:25:34.519Z,1025.62
2016-02-17T00:26:34.553Z,1025.61
2016-02-17T00:27:34.618Z,1025.58
2016-02-17T00:28:34.667Z,1025.56
2016-02-17T00:29:34.717Z,1025.55
2016-02-17T00:30:34.787Z,1025.53
2016-02-17T00:31:34.805Z,1025.54
2016-02-17T00:32:34.871Z,1025.55
2016-02-17T00:33:34.921Z,1025.54
2016-02-17T00:34:34.969Z,1025.53
2016-02-17T00:35:35.004Z,1025.52
2016-02-17T00:36:35.069Z,1025.5
2016-02-17T00:37:35.118Z,1025.47
2016-02-17T00:38:35.184Z,1025.47
2016-02-17T00:39:35.217Z,1025.45
2016-02-17T00:40:35.268Z,1025.41
2016-02-17T00:41:35.317Z,1025.4
2016-02-17T00:42:35.366Z,1025.38
2016-02-17T00:43:35.431Z,1025.39
2016-02-17T00:44:35.481Z,1025.39
2016-02-17T00:45:35.515Z,1025.41
2016-02-17T00:46:35.565Z,1025.4
2016-02-17T00:47:35.629Z,1025.39
2016-02-17T00:48:35.679Z,1025.41
2016-02-17T00:49:35.729Z,1025.42
2016-02-17T00:50:35.762Z,1025.43
2016-02-17T00:51:35.812Z,1025.4
2016-02-17T00:52:35.877Z,1025.44
2016-02-17T00:53:35.928Z,1025.43
2016-02-17T00:54:35.977Z,1025.46
2016-02-17T00:55:36.026Z,1025.42
2016-02-17T00:56:36.060Z,1025.45
2016-02-17T00:57:36.125Z,1025.33
2016-02-17T00:58:36.175Z,1025.39
2016-02-17T00:59:36.224Z,1025.39
2016-02-17T01:00:36.289Z,1025.36
2016-02-17T01:01:36.324Z,1025.38
2016-02-17T01:02:36.374Z,1025.33
2016-02-17T01:03:36.422Z,1025.34
2016-02-17T01:04:36.472Z,1025.33
2016-02-17T01:05:36.521Z,1025.31
2016-02-17T01:06:36.572Z,1025.29
2016-02-17T01:07:36.621Z,1025.27
2016-02-17T01:08:36.686Z,1025.27
2016-02-17T01:09:36.735Z,1025.23
2016-02-17T01:10:36.801Z,1025.23
2016-02-17T01:11:36.835Z,1025.23
2016-02-17T01:12:36.868Z,1025.19
2016-02-17T01:13:36.934Z,1025.2
2016-02-17T01:14:36.984Z,1025.15
2016-02-17T01:15:37.017Z,1025.14
2016-02-17T01:16:37.067Z,1025.12
2016-02-17T01:17:37.132Z,1025.09
2016-02-17T01:18:37.182Z,1025.13
2016-02-17T01:19:37.231Z,1025.09
2016-02-17T01:20:37.297Z,1025.06
2016-02-17T01:21:37.330Z,1025.03
2016-02-17T01:22:37.381Z,1025
2016-02-17T01:23:37.430Z,1025.02
2016-02-17T01:24:37.479Z,1024.98
2016-02-17T01:25:37.529Z,1024.97
2016-02-17T01:26:37.578Z,1024.98
2016-02-17T01:27:37.628Z,1024.97
2016-02-17T01:28:37.694Z,1024.96
2016-02-17T01:29:37.742Z,1024.93
2016-02-17T01:30:37.792Z,1024.91
2016-02-17T01:31:37.842Z,1024.9
2016-02-17T01:32:37.891Z,1024.89
2016-02-17T01:33:37.941Z,1024.86
2016-02-17T01:34:37.990Z,1024.83
2016-02-17T01:35:38.056Z,1024.78
2016-02-17T01:36:38.090Z,1024.81
2016-02-17T01:37:38.139Z,1024.79
2016-02-17T01:38:38.188Z,1024.73
2016-02-17T01:39:38.238Z,1024.7
2016-02-17T01:40:38.288Z,1024.7
2016-02-17T01:41:38.337Z,1024.72
2016-02-17T01:42:38.387Z,1024.73
2016-02-17T01:43:38.437Z,1024.72
2016-02-17T01:44:38.487Z,1024.73
2016-02-17T01:45:38.535Z,1024.73
2016-02-17T01:46:38.585Z,1024.7
2016-02-17T01:47:38.635Z,1024.71
2016-02-17T01:48:38.684Z,1024.69
2016-02-17T01:49:38.734Z,1024.7
2016-02-17T01:50:38.783Z,1024.7
2016-02-17T01:51:38.848Z,1024.66
2016-02-17T01:52:38.883Z,1024.63
2016-02-17T01:53:38.948Z,1024.63
2016-02-17T01:54:38.997Z,1024.6
2016-02-17T01:55:39.047Z,1024.57
2016-02-17T01:56:39.097Z,1024.53
2016-02-17T01:57:39.147Z,1024.54
2016-02-17T01:58:39.195Z,1024.52
2016-02-17T01:59:39.245Z,1024.49
2016-02-17T02:00:39.295Z,1024.51
2016-02-17T02:01:39.328Z,1024.44
2016-02-17T02:02:39.378Z,1024.44
2016-02-17T02:03:39.443Z,1024.38
2016-02-17T02:04:39.493Z,1024.38
2016-02-17T02:05:39.543Z,1024.42
2016-02-17T02:06:39.576Z,1024.4
2016-02-17T02:07:39.642Z,1024.35
2016-02-17T02:08:39.691Z,1024.34
2016-02-17T02:09:39.741Z,1024.27
2016-02-17T02:10:39.775Z,1024.24
2016-02-17T02:11:39.840Z,1024.21
2016-02-17T02:12:39.890Z,1024.17
2016-02-17T02:13:39.940Z,1024.16
2016-02-17T02:14:39.988Z,1024.16
2016-02-17T02:15:40.038Z,1024.13
2016-02-17T02:16:40.104Z,1024.11
2016-02-17T02:17:40.154Z,1024.09
2016-02-17T02:18:40.187Z,1024.1
2016-02-17T02:19:40.236Z,1024.13
2016-02-17T02:20:40.286Z,1024.1
2016-02-17T02:21:40.336Z,1024.1
2016-02-17T02:22:40.385Z,1024.1
2016-02-17T02:23:40.434Z,1024.07
2016-02-17T02:24:40.484Z,1024.05
2016-02-17T02:25:40.535Z,1024.05
2016-02-17T02:26:40.601Z,1024.04
2016-02-17T02:27:40.649Z,1024.03
2016-02-17T02:28:40.684Z,1024.07
2016-02-17T02:29:40.734Z,1024.05
2016-02-17T02:30:40.782Z,1024.05
2016-02-17T02:31:40.832Z,1024.01
2016-02-17T02:32:40.881Z,1023.97
2016-02-17T02:33:40.932Z,1023.97
2016-02-17T02:34:40.981Z,1023.97
2016-02-17T02:35:41.046Z,1023.98
2016-02-17T02:36:41.080Z,1023.95
2016-02-17T02:37:41.145Z,1023.95
2016-02-17T02:38:41.195Z,1023.89
2016-02-17T02:39:41.244Z,1023.93
2016-02-17T02:40:41.294Z,1023.9
2016-02-17T02:41:41.344Z,1023.84
2016-02-17T02:42:41.394Z,1023.83
2016-02-17T02:43:41.442Z,1023.82
2016-02-17T02:44:41.492Z,1023.79
2016-02-17T02:45:41.542Z,1023.82
2016-02-17T02:46:41.592Z,1023.82
2016-02-17T02:47:41.641Z,1023.82
2016-02-17T02:48:41.691Z,1023.82
2016-02-17T02:49:41.740Z,1023.81
2016-02-17T02:50:41.790Z,1023.8
2016-02-17T02:51:41.839Z,1023.78
2016-02-17T02:52:41.888Z,1023.77
2016-02-17T02:53:41.938Z,1023.75
2016-02-17T02:54:41.988Z,1023.72
2016-02-17T02:55:42.054Z,1023.74
2016-02-17T02:56:42.088Z,1023.69
2016-02-17T02:57:42.152Z,1023.71
2016-02-17T02:58:42.187Z,1023.63
2016-02-17T02:59:42.235Z,1023.67
2016-02-17T03:00:42.285Z,1023.67
2016-02-17T03:01:42.350Z,1023.69
2016-02-17T03:02:42.416Z,1023.64
2016-02-17T03:03:42.450Z,1023.68
2016-02-17T03:04:42.499Z,1023.67
2016-02-17T03:05:42.548Z,1023.65
2016-02-17T03:06:42.614Z,1023.61
2016-02-17T03:07:42.664Z,1023.6
2016-02-17T03:08:42.697Z,1023.52
2016-02-17T03:09:42.762Z,1023.49
2016-02-17T03:10:42.797Z,1023.45
2016-02-17T03:11:42.847Z,1023.42
2016-02-17T03:12:42.895Z,1023.38
2016-02-17T03:13:42.945Z,1023.34
2016-02-17T03:14:42.994Z,1023.35
2016-02-17T03:15:43.061Z,1023.33
2016-02-17T03:16:43.110Z,1023.33
2016-02-17T03:17:43.144Z,1023.32
2016-02-17T03:18:43.193Z,1023.31
2016-02-17T03:19:43.243Z,1023.3
2016-02-17T03:20:43.308Z,1023.3
2016-02-17T03:21:43.357Z,1023.3
2016-02-17T03:22:43.407Z,1023.32
2016-02-17T03:23:43.441Z,1023.37
2016-02-17T03:24:43.507Z,1023.32
2016-02-17T03:25:43.571Z,1023.27
2016-02-17T03:26:43.605Z,1023.3
2016-02-17T03:27:43.640Z,1023.27
2016-02-17T03:28:43.704Z,1023.25
2016-02-17T03:29:43.754Z,1023.21
2016-02-17T03:30:43.803Z,1023.2
2016-02-17T03:31:43.854Z,1023.14
2016-02-17T03:32:43.903Z,1023.13
2016-02-17T03:33:43.952Z,1023.13
2016-02-17T03:34:44.002Z,1023.14
2016-02-17T03:35:44.051Z,1023.12
2016-02-17T03:36:44.117Z,1023.11
2016-02-17T03:37:44.150Z,1023.12
2016-02-17T03:38:44.200Z,1023.1
2016-02-17T03:39:44.250Z,1023.1
2016-02-17T03:40:44.300Z,1023.1
2016-02-17T03:41:44.348Z,1023.08
2016-02-17T03:42:44.414Z,1023.06
2016-02-17T03:43:44.447Z,1023.07
2016-02-17T03:44:44.513Z,1023.06
2016-02-17T03:45:44.563Z,1023.05
2016-02-17T03:46:44.612Z,1023.03
2016-02-17T03:47:44.661Z,1023.04
2016-02-17T03:48:44.711Z,1023.02
2016-02-17T03:49:44.761Z,1023.02
2016-02-17T03:50:44.794Z,1022.99
2016-02-17T03:51:44.844Z,1023.04
2016-02-17T03:52:44.894Z,1023
2016-02-17T03:53:44.944Z,1022.98
2016-02-17T03:54:44.993Z,1023
2016-02-17T03:55:45.043Z,1023.02
2016-02-17T03:56:45.108Z,1022.99
2016-02-17T03:57:45.157Z,1022.97
2016-02-17T03:58:45.207Z,1022.93
2016-02-17T03:59:45.240Z,1022.94
2016-02-17T04:00:45.307Z,1022.95
2016-02-17T04:01:45.340Z,1022.93
2016-02-17T04:02:45.405Z,1022.91
2016-02-17T04:03:45.455Z,1022.85
2016-02-17T04:04:45.504Z,1022.83
2016-02-17T04:05:45.554Z,1022.79
2016-02-17T04:06:45.603Z,1022.75
2016-02-17T04:07:45.653Z,1022.76
2016-02-17T04:08:45.703Z,1022.7
2016-02-17T04:09:45.753Z,1022.67
2016-02-17T04:10:45.801Z,1022.66
2016-02-17T04:11:45.867Z,1022.64
2016-02-17T04:12:45.916Z,1022.64
2016-02-17T04:13:45.950Z,1022.62
2016-02-17T04:14:46.000Z,1022.6
2016-02-17T04:15:46.065Z,1022.57
2016-02-17T04:16:46.114Z,1022.57
2016-02-17T04:17:46.164Z,1022.52
2016-02-17T04:18:46.214Z,1022.57
2016-02-17T04:19:46.263Z,1022.53
2016-02-17T04:20:46.297Z,1022.46
2016-02-17T04:21:46.363Z,1022.45
2016-02-17T04:22:46.413Z,1022.46
2016-02-17T04:23:46.461Z,1022.44
2016-02-17T04:24:46.527Z,1022.46
2016-02-17T04:25:46.561Z,1022.41
2016-02-17T04:26:46.610Z,1022.4
2016-02-17T04:27:46.660Z,1022.37
2016-02-17T04:28:46.709Z,1022.35
2016-02-17T04:29:46.774Z,1022.33
2016-02-17T04:30:46.809Z,1022.31
2016-02-17T04:32:46.908Z,1022.3
2016-02-17T04:33:46.957Z,1022.29
2016-02-17T04:34:47.007Z,1022.25
2016-02-17T04:35:47.056Z,1022.22
2016-02-17T04:36:47.106Z,1022.15
2016-02-17T04:37:47.156Z,1022.11
2016-02-17T04:38:47.221Z,1022.07
2016-02-17T04:39:47.254Z,1022.08
2016-02-17T04:40:47.304Z,1022.08
2016-02-17T04:41:47.353Z,1022.12
2016-02-17T04:42:47.403Z,1022.09
2016-02-17T04:43:47.453Z,1022.07
2016-02-17T04:44:47.517Z,1022.05
2016-02-17T04:45:47.553Z,1022.06
2016-02-17T04:46:47.617Z,1022.1
2016-02-17T04:47:47.651Z,1022.11
2016-02-17T04:48:47.701Z,1022.1
2016-02-17T04:49:47.766Z,1022.09
2016-02-17T04:50:47.816Z,1022.07
2016-02-17T04:51:47.850Z,1021.99
2016-02-17T04:52:47.914Z,1021.98
2016-02-17T04:53:47.949Z,1021.97
2016-02-17T04:54:48.014Z,1021.99
2016-02-17T04:55:48.047Z,1022
2016-02-17T04:56:48.113Z,1022.04
2016-02-17T04:57:48.146Z,1022.02
2016-02-17T04:58:48.212Z,1022.01
2016-02-17T04:59:48.246Z,1022
2016-02-17T05:00:48.311Z,1021.98
2016-02-17T05:01:48.361Z,1021.95
2016-02-17T05:02:48.410Z,1021.97
2016-02-17T05:03:48.460Z,1022.01
2016-02-17T05:04:48.509Z,1021.97
2016-02-17T05:05:48.543Z,1021.93
2016-02-17T05:06:48.609Z,1021.91
2016-02-17T05:07:48.659Z,1021.89
2016-02-17T05:08:48.708Z,1021.9
2016-02-17T05:09:48.742Z,1021.86
2016-02-17T05:10:48.823Z,1021.84
2016-02-17T05:11:48.856Z,1021.86
2016-02-17T05:12:48.922Z,1021.84
2016-02-17T05:13:48.939Z,1021.84
2016-02-17T05:14:49.006Z,1021.84
2016-02-17T05:15:49.039Z,1021.83
2016-02-17T05:16:49.120Z,1021.86
2016-02-17T05:17:49.154Z,1021.87
2016-02-17T05:18:49.203Z,1021.83
2016-02-17T05:19:49.253Z,1021.8
2016-02-17T05:20:49.302Z,1021.81
2016-02-17T05:21:49.352Z,1021.79
2016-02-17T05:22:49.402Z,1021.77
2016-02-17T05:23:49.467Z,1021.79
2016-02-17T05:24:49.501Z,1021.79
2016-02-17T05:25:49.550Z,1021.75
2016-02-17T05:26:49.600Z,1021.72
2016-02-17T05:27:49.665Z,1021.69
2016-02-17T05:28:49.715Z,1021.65
2016-02-17T05:29:49.764Z,1021.6
2016-02-17T05:30:49.814Z,1021.63
2016-02-17T05:31:49.863Z,1021.63
2016-02-17T05:32:49.913Z,1021.61
2016-02-17T05:33:49.978Z,1021.6
2016-02-17T05:34:50.027Z,1021.55
2016-02-17T05:35:50.062Z,1021.56
2016-02-17T05:36:50.112Z,1021.56
2016-02-17T05:37:50.161Z,1021.58
2016-02-17T05:38:50.210Z,1021.58
2016-02-17T05:39:50.260Z,1021.56
2016-02-17T05:40:50.309Z,1021.55
2016-02-17T05:41:50.359Z,1021.52
2016-02-17T05:42:50.408Z,1021.53
2016-02-17T05:43:50.459Z,1021.5
2016-02-17T05:44:50.492Z,1021.49
2016-02-17T05:45:50.557Z,1021.46
2016-02-17T05:46:50.592Z,1021.41
2016-02-17T05:47:50.641Z,1021.39
2016-02-17T05:48:50.706Z,1021.35
2016-02-17T05:49:50.739Z,1021.33
2016-02-17T05:50:50.789Z,1021.33
2016-02-17T05:51:50.855Z,1021.29
2016-02-17T05:52:50.905Z,1021.25
2016-02-17T05:53:50.939Z,1021.18
2016-02-17T05:54:51.003Z,1021.19
2016-02-17T05:55:51.053Z,1021.15
2016-02-17T05:56:51.102Z,1021.14
2016-02-17T05:57:51.168Z,1021.12
2016-02-17T05:58:51.201Z,1021.11
2016-02-17T05:59:51.252Z,1021.07
2016-02-17T06:00:51.302Z,1021.03
2016-02-17T06:01:51.350Z,1020.99
2016-02-17T06:02:51.399Z,1020.96
2016-02-17T06:03:51.465Z,1020.95
2016-02-17T06:04:51.499Z,1020.97
2016-02-17T06:05:51.548Z,1020.92
2016-02-17T06:06:51.599Z,1020.91
2016-02-17T06:07:51.648Z,1020.87
2016-02-17T06:08:51.698Z,1020.86
2016-02-17T06:09:51.762Z,1020.83
2016-02-17T06:10:51.812Z,1020.83
2016-02-17T06:11:51.862Z,1020.76
2016-02-17T06:12:52.254Z,1020.73
2016-02-17T06:13:51.942Z,1020.71
2016-02-17T06:14:52.008Z,1020.67
2016-02-17T06:15:52.042Z,1020.66
2016-02-17T06:16:52.106Z,1020.65
2016-02-17T06:17:52.156Z,1020.63
2016-02-17T06:18:52.190Z,1020.53
2016-02-17T06:19:52.240Z,1020.6
2016-02-17T06:20:52.290Z,1020.59
2016-02-17T06:21:52.355Z,1020.58
2016-02-17T06:22:52.388Z,1020.59
2016-02-17T06:23:52.439Z,1020.51
2016-02-17T06:24:52.489Z,1020.57
2016-02-17T06:25:52.537Z,1020.53
2016-02-17T06:26:52.603Z,1020.56
2016-02-17T06:27:52.652Z,1020.49
2016-02-17T06:28:52.702Z,1020.51
2016-02-17T06:29:52.735Z,1020.49
2016-02-17T06:30:52.800Z,1020.51
2016-02-17T06:31:52.866Z,1020.47
2016-02-17T06:32:52.885Z,1020.4
2016-02-17T06:33:52.934Z,1020.41
2016-02-17T06:34:52.999Z,1020.41
2016-02-17T06:35:53.049Z,1020.42
2016-02-17T06:36:53.098Z,1020.38
2016-02-17T06:37:53.132Z,1020.38
2016-02-17T06:38:53.196Z,1020.34
2016-02-17T06:39:53.247Z,1020.33
2016-02-17T06:40:53.282Z,1020.34
2016-02-17T06:41:53.330Z,1020.28
2016-02-17T06:42:53.396Z,1020.33
2016-02-17T06:43:53.429Z,1020.32
2016-02-17T06:44:53.495Z,1020.26
2016-02-17T06:45:53.528Z,1020.26
2016-02-17T06:46:53.593Z,1020.24
2016-02-17T06:47:53.644Z,1020.21
2016-02-17T06:48:53.678Z,1020.19
2016-02-17T06:49:53.743Z,1020.2
2016-02-17T06:50:53.792Z,1020.18
2016-02-17T06:51:53.842Z,1020.17
2016-02-17T06:52:53.892Z,1020.12
2016-02-17T06:53:53.941Z,1020.09
2016-02-17T06:54:53.989Z,1020.1
2016-02-17T06:55:54.040Z,1020.07
2016-02-17T06:56:54.090Z,1020.06
2016-02-17T06:57:54.139Z,1020.06
2016-02-17T06:58:54.204Z,1020
2016-02-17T06:59:54.238Z,1019.98
2016-02-17T07:00:54.288Z,1019.99
2016-02-17T07:01:54.352Z,1020.02
2016-02-17T07:02:54.387Z,1019.97
2016-02-17T07:03:54.453Z,1019.95
2016-02-17T07:04:54.501Z,1019.95
2016-02-17T07:05:54.551Z,1019.91
2016-02-17T07:06:54.601Z,1019.92
2016-02-17T07:07:54.650Z,1019.9
2016-02-17T07:08:54.700Z,1019.93
2016-02-17T07:09:54.735Z,1019.91
2016-02-17T07:10:54.799Z,1019.95
2016-02-17T07:11:54.833Z,1019.97
2016-02-17T07:12:54.883Z,1019.9
2016-02-17T07:13:54.932Z,1019.96
2016-02-17T07:14:54.982Z,1019.88
2016-02-17T07:15:55.031Z,1019.88
2016-02-17T07:16:55.097Z,1019.84
2016-02-17T07:17:55.131Z,1019.87
2016-02-17T07:18:55.195Z,1019.87
2016-02-17T07:19:55.229Z,1019.85
2016-02-17T07:20:55.295Z,1019.85
2016-02-17T07:21:55.344Z,1019.81
2016-02-17T07:22:55.379Z,1019.77
2016-02-17T07:23:55.442Z,1019.77
2016-02-17T07:24:55.493Z,1019.76
2016-02-17T07:25:55.527Z,1019.8
2016-02-17T07:26:55.576Z,1019.79
2016-02-17T07:27:55.626Z,1019.76
2016-02-17T07:28:55.691Z,1019.78
2016-02-17T07:29:55.741Z,1019.76
2016-02-17T07:30:55.806Z,1019.73
2016-02-17T07:31:55.839Z,1019.73
2016-02-17T07:32:55.890Z,1019.69
2016-02-17T07:33:55.939Z,1019.66
2016-02-17T07:34:55.989Z,1019.63
2016-02-17T07:35:56.022Z,1019.59
2016-02-17T07:36:56.088Z,1019.6
2016-02-17T07:37:56.138Z,1019.58
2016-02-17T07:38:56.171Z,1019.58
2016-02-17T07:39:56.252Z,1019.56
2016-02-17T07:40:56.286Z,1019.49
2016-02-17T07:41:56.336Z,1019.5
2016-02-17T07:42:56.385Z,1019.48
2016-02-17T07:43:56.435Z,1019.43
2016-02-17T07:44:56.485Z,1019.47
2016-02-17T07:45:56.534Z,1019.45
2016-02-17T07:46:56.583Z,1019.44
2016-02-17T07:47:56.633Z,1019.44
2016-02-17T07:48:56.682Z,1019.46
2016-02-17T07:49:56.729Z,1019.41
2016-02-17T07:50:56.761Z,1019.41
2016-02-17T07:51:56.795Z,1019.36
2016-02-17T07:52:56.843Z,1019.38
2016-02-17T07:53:56.877Z,1019.38
2016-02-17T07:54:56.912Z,1019.38
2016-02-17T07:55:56.939Z,1019.4
2016-02-17T07:56:56.984Z,1019.39
2016-02-17T07:57:57.028Z,1019.33
2016-02-17T07:58:57.071Z,1019.3
2016-02-17T07:59:57.132Z,1019.33
2016-02-17T08:00:57.163Z,1019.34
2016-02-17T08:01:57.211Z,1019.34
2016-02-17T08:02:57.260Z,1019.31
2016-02-17T08:03:57.306Z,1019.25
2016-02-17T08:04:57.355Z,1019.29
2016-02-17T08:05:57.403Z,1019.3
2016-02-17T08:06:57.452Z,1019.3
2016-02-17T08:07:57.501Z,1019.27
2016-02-17T08:08:57.550Z,1019.3
2016-02-17T08:09:57.599Z,1019.3
2016-02-17T08:10:57.648Z,1019.26
2016-02-17T08:11:57.696Z,1019.31
2016-02-17T08:12:57.746Z,1019.27
2016-02-17T08:13:57.780Z,1019.21
2016-02-17T08:14:57.828Z,1019.19
2016-02-17T08:15:57.878Z,1019.17
2016-02-17T08:16:57.912Z,1019.15
2016-02-17T08:17:57.962Z,1019.13
2016-02-17T08:18:58.527Z,1019.08
2016-02-17T08:19:58.077Z,1019.01
2016-02-17T08:20:58.579Z,1019.03
2016-02-17T08:21:58.176Z,1018.99
2016-02-17T08:22:58.757Z,1018.92
2016-02-17T08:23:58.571Z,1018.92
2016-02-17T08:24:58.310Z,1018.86
2016-02-17T08:25:58.358Z,1018.87
2016-02-17T08:26:58.736Z,1018.8
2016-02-17T08:27:58.943Z,1018.78
2016-02-17T08:28:58.992Z,1018.79
2016-02-17T08:29:59.041Z,1018.75
2016-02-17T08:30:58.872Z,1018.74
2016-02-17T08:31:58.657Z,1018.74
2016-02-17T08:32:58.987Z,1018.73
2016-02-17T08:33:58.754Z,1018.78
2016-02-17T08:34:58.805Z,1018.74
2016-02-17T08:35:58.839Z,1018.7
2016-02-17T08:36:59.217Z,1018.68
2016-02-17T08:37:58.937Z,1018.71
2016-02-17T08:38:58.987Z,1018.67
2016-02-17T08:39:59.037Z,1018.68
2016-02-17T08:40:59.087Z,1018.7
2016-02-17T08:41:59.136Z,1018.68
2016-02-17T08:42:59.186Z,1018.67
2016-02-17T08:43:59.236Z,1018.65
2016-02-17T08:44:59.285Z,1018.64
2016-02-17T08:45:59.335Z,1018.61
2016-02-17T08:46:59.384Z,1018.61
2016-02-17T08:47:59.434Z,1018.6
2016-02-17T08:48:59.484Z,1018.58
2016-02-17T08:49:59.533Z,1018.59
2016-02-17T08:50:59.583Z,1018.6
2016-02-17T08:51:59.632Z,1018.57
2016-02-17T08:52:59.681Z,1018.58
2016-02-17T08:53:59.730Z,1018.56
2016-02-17T08:54:59.780Z,1018.44
2016-02-17T08:55:59.830Z,1018.44
2016-02-17T08:56:59.880Z,1018.39
2016-02-17T08:57:59.930Z,1018.39
2016-02-17T08:58:59.979Z,1018.34
2016-02-17T09:00:00.029Z,1018.33
2016-02-17T09:01:00.077Z,1018.29
2016-02-17T09:02:00.127Z,1018.26
2016-02-17T09:03:00.177Z,1018.31
2016-02-17T09:04:00.227Z,1018.27
2016-02-17T09:05:00.261Z,1018.27
2016-02-17T09:06:00.326Z,1018.23
2016-02-17T09:07:00.376Z,1018.21
2016-02-17T09:08:00.409Z,1018.13
2016-02-17T09:09:00.459Z,1018.16
2016-02-17T09:10:00.524Z,1018.14
2016-02-17T09:11:00.558Z,1018.11
2016-02-17T09:12:00.607Z,1018.11
2016-02-17T09:13:00.656Z,1018.11
2016-02-17T09:14:00.707Z,1018.05
2016-02-17T09:15:00.757Z,1018.03
2016-02-17T09:16:00.822Z,1018.04
2016-02-17T09:17:00.871Z,1018.06
2016-02-17T09:18:00.920Z,1018.03
2016-02-17T09:19:00.955Z,1018.02
2016-02-17T09:20:01.003Z,1018.02
2016-02-17T09:21:01.053Z,1017.93
2016-02-17T09:22:01.103Z,1017.9
2016-02-17T09:23:01.152Z,1017.9
2016-02-17T09:24:01.203Z,1017.85
2016-02-17T09:25:01.252Z,1017.84
2016-02-17T09:26:01.302Z,1017.82
2016-02-17T09:27:01.351Z,1017.79
2016-02-17T09:28:01.400Z,1017.77
2016-02-17T09:29:01.449Z,1017.74
2016-02-17T09:30:01.500Z,1017.71
2016-02-17T09:31:01.549Z,1017.67
2016-02-17T09:32:01.599Z,1017.61
2016-02-17T09:33:01.648Z,1017.59
2016-02-17T09:34:01.698Z,1017.57
2016-02-17T09:35:01.748Z,1017.56
2016-02-17T09:36:01.796Z,1017.54
2016-02-17T09:37:01.847Z,1017.49
2016-02-17T09:38:01.897Z,1017.49
2016-02-17T09:39:01.946Z,1017.5
2016-02-17T09:40:01.996Z,1017.44
2016-02-17T09:41:02.045Z,1017.46
2016-02-17T09:42:02.095Z,1017.36
2016-02-17T09:43:02.145Z,1017.39
2016-02-17T09:44:02.193Z,1017.35
2016-02-17T09:45:02.243Z,1017.39
2016-02-17T09:46:02.308Z,1017.32
2016-02-17T09:47:02.342Z,1017.31
2016-02-17T09:48:02.392Z,1017.27
2016-02-17T09:49:02.442Z,1017.24
2016-02-17T09:50:02.491Z,1017.21
2016-02-17T09:51:02.541Z,1017.24
2016-02-17T09:52:02.590Z,1017.23
2016-02-17T09:53:02.640Z,1017.21
2016-02-17T09:54:02.689Z,1017.15
2016-02-17T09:55:02.739Z,1017.17
2016-02-17T09:56:02.788Z,1017.18
2016-02-17T09:57:02.838Z,1017.14
2016-02-17T09:58:02.888Z,1017.12
2016-02-17T09:59:02.938Z,1017.15
2016-02-17T10:00:02.987Z,1017.09
2016-02-17T10:01:03.036Z,1017.09
2016-02-17T10:02:03.086Z,1017.11
2016-02-17T10:03:03.136Z,1017
2016-02-17T10:04:03.185Z,1017.02
2016-02-17T10:05:03.234Z,1016.99
2016-02-17T10:06:03.284Z,1016.98
2016-02-17T10:07:03.334Z,1016.96
2016-02-17T10:08:03.383Z,1016.93
2016-02-17T10:09:03.432Z,1016.93
2016-02-17T10:10:03.482Z,1016.96
2016-02-17T10:11:03.532Z,1016.95
2016-02-17T10:12:03.581Z,1016.91
2016-02-17T10:13:03.631Z,1016.85
2016-02-17T10:14:03.681Z,1016.82
2016-02-17T10:15:03.730Z,1016.8
2016-02-17T10:16:03.780Z,1016.75
2016-02-17T10:17:03.829Z,1016.72
2016-02-17T10:18:03.879Z,1016.68
2016-02-17T10:19:03.991Z,1016.58
2016-02-17T10:20:03.978Z,1016.55
2016-02-17T10:21:04.028Z,1016.52
2016-02-17T10:22:04.077Z,1016.53
2016-02-17T10:23:04.127Z,1016.48
2016-02-17T10:24:04.176Z,1016.44
2016-02-17T10:25:04.225Z,1016.38
2016-02-17T10:26:04.275Z,1016.31
2016-02-17T10:27:04.325Z,1016.31
2016-02-17T10:28:04.375Z,1016.25
2016-02-17T10:29:04.424Z,1016.24
2016-02-17T10:30:04.474Z,1016.22
2016-02-17T10:31:04.524Z,1016.22
2016-02-17T10:32:04.573Z,1016.24
2016-02-17T10:33:04.622Z,1016.24
2016-02-17T10:34:04.672Z,1016.19
2016-02-17T10:35:04.738Z,1016.19
2016-02-17T10:36:04.771Z,1016.17
2016-02-17T10:37:04.821Z,1016.08
2016-02-17T10:38:04.886Z,1016.02
2016-02-17T10:39:04.921Z,1015.99
2016-02-17T10:40:04.970Z,1015.98
2016-02-17T10:41:05.035Z,1015.92
2016-02-17T10:42:05.085Z,1015.89
2016-02-17T10:43:05.119Z,1015.92
2016-02-17T10:44:05.188Z,1015.92
2016-02-17T10:45:05.350Z,1015.94
2016-02-17T10:46:05.275Z,1015.85
2016-02-17T10:47:05.368Z,1015.81
2016-02-17T10:48:05.409Z,1015.76
2016-02-17T10:49:05.428Z,1015.71
2016-02-17T10:50:05.477Z,1015.73
2016-02-17T10:51:05.528Z,1015.7
2016-02-17T10:52:05.577Z,1015.67
2016-02-17T10:53:05.627Z,1015.71
2016-02-17T10:54:05.676Z,1015.63
2016-02-17T10:55:05.726Z,1015.64
2016-02-17T10:56:05.775Z,1015.56
2016-02-17T10:57:05.819Z,1015.52
2016-02-17T10:58:05.869Z,1015.48
2016-02-17T10:59:05.918Z,1015.48
2016-02-17T11:00:05.983Z,1015.41
2016-02-17T11:01:06.018Z,1015.42
2016-02-17T11:02:06.067Z,1015.41
2016-02-17T11:03:06.116Z,1015.34
2016-02-17T11:04:06.166Z,1015.31
2016-02-17T11:05:06.232Z,1015.3
2016-02-17T11:06:06.265Z,1015.33
2016-02-17T11:07:06.315Z,1015.29
2016-02-17T11:08:06.365Z,1015.22
2016-02-17T11:09:06.429Z,1015.21
2016-02-17T11:10:06.465Z,1015.23
2016-02-17T11:11:06.529Z,1015.16
2016-02-17T11:12:06.579Z,1015.16
2016-02-17T11:13:06.612Z,1015.17
2016-02-17T11:14:06.662Z,1015.15
2016-02-17T11:15:06.728Z,1015.1
2016-02-17T11:16:06.777Z,1015.1
2016-02-17T11:17:06.827Z,1015.02
2016-02-17T11:18:06.876Z,1014.93
2016-02-17T11:19:06.926Z,1014.87
2016-02-17T11:20:06.975Z,1014.81
2016-02-17T11:21:07.025Z,1014.79
2016-02-17T11:22:07.075Z,1014.75
2016-02-17T11:23:07.125Z,1014.73
2016-02-17T11:24:07.173Z,1014.66
2016-02-17T11:25:07.223Z,1014.65
2016-02-17T11:26:07.273Z,1014.64
2016-02-17T11:27:07.322Z,1014.63
2016-02-17T11:28:07.372Z,1014.58
2016-02-17T11:29:07.422Z,1014.56
2016-02-17T11:30:07.472Z,1014.49
2016-02-17T11:31:07.521Z,1014.51
2016-02-17T11:32:07.570Z,1014.48
2016-02-17T11:33:07.620Z,1014.45
2016-02-17T11:34:07.670Z,1014.48
2016-02-17T11:35:07.719Z,1014.41
2016-02-17T11:36:07.769Z,1014.44
2016-02-17T11:37:07.818Z,1014.4
2016-02-17T11:38:07.868Z,1014.35
2016-02-17T11:39:07.917Z,1014.38
2016-02-17T11:40:07.966Z,1014.33
2016-02-17T11:41:08.016Z,1014.29
2016-02-17T11:42:08.066Z,1014.3
2016-02-17T11:43:08.116Z,1014.29
2016-02-17T11:44:08.165Z,1014.27
2016-02-17T11:45:08.215Z,1014.29
2016-02-17T11:46:08.265Z,1014.25
2016-02-17T11:47:08.315Z,1014.21
2016-02-17T11:48:08.364Z,1014.16
2016-02-17T11:49:08.413Z,1014.12
2016-02-17T11:50:08.462Z,1014.1
2016-02-17T11:51:08.513Z,1014.06
2016-02-17T11:52:08.562Z,1014.06
2016-02-17T11:53:08.612Z,1014.05
2016-02-17T11:54:08.662Z,1014.07
2016-02-17T11:55:08.711Z,1014.04
2016-02-17T11:56:08.760Z,1014.03
2016-02-17T11:57:08.810Z,1014.05
2016-02-17T11:58:08.859Z,1014.03
2016-02-17T11:59:08.910Z,1014.04
2016-02-17T12:00:08.959Z,1013.98
2016-02-17T12:01:09.008Z,1013.99
2016-02-17T12:02:09.059Z,1013.89
2016-02-17T12:03:09.108Z,1013.88
2016-02-17T12:04:09.157Z,1013.89
2016-02-17T12:05:09.258Z,1013.89
2016-02-17T12:06:09.261Z,1013.87
2016-02-17T12:07:09.310Z,1013.81
2016-02-17T12:08:09.360Z,1013.79
2016-02-17T12:09:09.410Z,1013.74
2016-02-17T12:10:09.460Z,1013.75